• Join FlightAware (Why Join?)
  • Login
  • US Flag 
04:20AM EDT


 

Airport Tracker/Info


-or-


 

Live Flight TrackerFlight Track Log ✈ TAI397 ✈ 10-Feb-2014 ✈ KMIA - MNMG / MGA

Flight Track Log - Related Links

Times and Time Zones

All times are in EST time to prevent confusion due to time zone crossing. See the TAI397 flight status page for this flight to view local times or setup timezone preferences in your user account.

Time Position Orientation Groundspeed Altitude Reporting Facility
EST Latitude Longitude Course Direction KTS MPH feet Rate Location/Type
03:29PM 25.7961 -80.2675 111° Southeast 149 171 1,100  Level Miami Center
03:30PM 25.7747 -80.2069 111° Southeast 233 268 2,300 1,260 Climbing Miami Center
03:31PM 25.7467 -80.1461 117° Southeast 272 313 3,600 2,160 Climbing Miami Center
03:31PM 25.7383 -80.1506 206° Southwest 280 322 4,300 3,180 Climbing Miami Center
03:32PM 25.6794 -80.1675 195° South 290 334 6,800 2,820 Climbing Miami Center
03:33PM 25.6097 -80.2047 206° Southwest 284 327 9,800 2,160 Climbing Miami Center
03:35PM 25.4244 -80.2686 214° Southwest 339 390 13,300 1,980 Climbing Miami Center
03:36PM 25.3275 -80.3003 196° South 359 413 15,800 2,160 Climbing Miami Center
03:37PM 25.2286 -80.3342 197° South 371 427 17,700 1,800 Climbing Miami Center
03:38PM 25.1253 -80.3725 199° South 383 441 19,400 1,800 Climbing Miami Center
03:39PM 25.0178 -80.4086 197° South 393 452 21,300 1,800 Climbing Miami Center
03:40PM 24.9083 -80.4467 198° South 407 468 23,000 1,620 Climbing Miami Center
03:41PM 24.7967 -80.4822 196° South 412 474 24,600 1,380 Climbing Miami Center
03:42PM 24.6872 -80.5203 198° South 417 480 25,800 1,320 Climbing Miami Center
03:43PM 24.5692 -80.5578 196° South 424 488 27,300 1,260 Climbing Miami Center
03:44PM 24.4578 -80.5933 196° South 429 494 28,400 1,200 Climbing Miami Center
03:46PM 24.2239 -80.6728 204° Southwest 434 499 31,000 1,140 Climbing Miami Center
03:48PM 24.0003 -80.7503 194° South 424 488 33,100 1,020 Climbing Miami Center
03:50PM 23.8541 -80.7899 194° South  Level FlightAware Approximate
03:57PM 23.1145 -81.0297 197° South  Level FlightAware Approximate
03:58PM 23.0089 -81.0640 197° South  Level FlightAware Approximate
03:59PM 22.9033 -81.0982 197° South  Level FlightAware Approximate
04:00PM 22.7978 -81.1324 197° South  Level FlightAware Approximate
04:01PM 22.6922 -81.1666 197° South  Level FlightAware Approximate
04:02PM 22.5866 -81.2007 197° South  Level FlightAware Approximate
04:03PM 22.4810 -81.2347 197° South  Level FlightAware Approximate
04:04PM 22.3754 -81.2687 197° South  Level FlightAware Approximate
04:05PM 22.2698 -81.3027 197° South  Level FlightAware Approximate
04:06PM 22.1642 -81.3365 197° South  Level FlightAware Approximate
04:07PM 22.0586 -81.3704 197° South  Level FlightAware Approximate
04:08PM 21.9529 -81.4042 197° South  Level FlightAware Approximate
04:09PM 21.8473 -81.4379 197° South  Level FlightAware Approximate
04:10PM 21.7416 -81.4716 196° South  Level FlightAware Approximate
04:11PM 21.6360 -81.5052 196° South  Level FlightAware Approximate
04:12PM 21.5365 -81.5545 209° Southwest  Level FlightAware Approximate
04:13PM 21.4401 -81.6118 209° Southwest  Level FlightAware Approximate
04:14PM 21.3436 -81.6691 209° Southwest  Level FlightAware Approximate
04:15PM 21.2472 -81.7263 209° Southwest  Level FlightAware Approximate
04:16PM 21.1507 -81.7834 209° Southwest  Level FlightAware Approximate
04:17PM 21.0543 -81.8404 209° Southwest  Level FlightAware Approximate
04:18PM 20.9578 -81.8974 209° Southwest  Level FlightAware Approximate
04:19PM 20.8612 -81.9542 209° Southwest  Level FlightAware Approximate
04:20PM 20.7647 -82.0110 209° Southwest  Level FlightAware Approximate
04:21PM 20.6682 -82.0678 209° Southwest  Level FlightAware Approximate
04:22PM 20.5716 -82.1245 209° Southwest  Level FlightAware Approximate
04:23PM 20.4750 -82.1810 209° Southwest  Level FlightAware Approximate
04:24PM 20.3784 -82.2376 209° Southwest  Level FlightAware Approximate
04:25PM 20.2818 -82.2940 209° Southwest  Level FlightAware Approximate
04:26PM 20.1851 -82.3504 209° Southwest  Level FlightAware Approximate
04:27PM 20.0869 -82.4000 180° South  Level FlightAware Approximate
04:28PM 19.9854 -82.4412 205° Southwest  Level FlightAware Approximate
04:29PM 19.8860 -82.4916 205° Southwest  Level FlightAware Approximate
04:30PM 19.7865 -82.5420 205° Southwest  Level FlightAware Approximate
04:31PM 19.6870 -82.5923 205° Southwest  Level FlightAware Approximate
04:32PM 19.5875 -82.6425 205° Southwest  Level FlightAware Approximate
04:33PM 19.4880 -82.6926 205° Southwest  Level FlightAware Approximate
04:34PM 19.3885 -82.7427 205° Southwest  Level FlightAware Approximate
04:35PM 19.2889 -82.7928 205° Southwest  Level FlightAware Approximate
04:36PM 19.1893 -82.8428 205° Southwest  Level FlightAware Approximate
04:37PM 19.0898 -82.8927 205° Southwest  Level FlightAware Approximate
04:38PM 18.9902 -82.9425 205° Southwest  Level FlightAware Approximate
04:39PM 18.8906 -82.9923 205° Southwest  Level FlightAware Approximate
04:40PM 18.7910 -83.0421 205° Southwest  Level FlightAware Approximate
04:41PM 18.6913 -83.0917 205° Southwest  Level FlightAware Approximate
04:42PM 18.5917 -83.1413 205° Southwest  Level FlightAware Approximate
04:43PM 18.4921 -83.1909 205° Southwest  Level FlightAware Approximate
04:44PM 18.3924 -83.2404 205° Southwest  Level FlightAware Approximate
04:45PM 18.2927 -83.2898 205° Southwest  Level FlightAware Approximate
04:46PM 18.1930 -83.3392 205° Southwest  Level FlightAware Approximate
04:47PM 18.0933 -83.3886 205° Southwest  Level FlightAware Approximate
04:48PM 17.9936 -83.4379 205° Southwest  Level FlightAware Approximate
04:49PM 17.8939 -83.4871 205° Southwest  Level FlightAware Approximate
04:50PM 17.7941 -83.5362 205° Southwest  Level FlightAware Approximate
04:51PM 17.6941 -83.5847 205° Southwest  Level FlightAware Approximate
04:52PM 17.5941 -83.6332 205° Southwest  Level FlightAware Approximate
04:53PM 17.4940 -83.6816 205° Southwest  Level FlightAware Approximate
04:54PM 17.3940 -83.7300 205° Southwest  Level FlightAware Approximate
04:55PM 17.2939 -83.7783 205° Southwest  Level FlightAware Approximate
04:56PM 17.1938 -83.8265 205° Southwest  Level FlightAware Approximate
04:57PM 17.0938 -83.8747 205° Southwest  Level FlightAware Approximate
04:58PM 16.9937 -83.9229 205° Southwest  Level FlightAware Approximate
04:59PM 16.8936 -83.9710 205° Southwest  Level FlightAware Approximate
05:00PM 16.7934 -84.0190 205° Southwest  Level FlightAware Approximate
05:01PM 16.6933 -84.0670 205° Southwest  Level FlightAware Approximate
05:02PM 16.5932 -84.1150 205° Southwest  Level FlightAware Approximate
05:03PM 16.4930 -84.1629 205° Southwest  Level FlightAware Approximate
05:04PM 16.3929 -84.2107 205° Southwest  Level FlightAware Approximate
05:05PM 16.2927 -84.2585 205° Southwest  Level FlightAware Approximate
05:06PM 16.1925 -84.3063 205° Southwest  Level FlightAware Approximate
05:07PM 16.0923 -84.3540 205° Southwest  Level FlightAware Approximate
05:08PM 15.9921 -84.4016 205° Southwest  Level FlightAware Approximate
05:09PM 15.8919 -84.4492 205° Southwest  Level FlightAware Approximate
05:10PM 15.7916 -84.4968 205° Southwest  Level FlightAware Approximate
05:11PM 15.6914 -84.5443 205° Southwest  Level FlightAware Approximate
05:12PM 15.5912 -84.5918 205° Southwest  Level FlightAware Approximate
05:13PM 15.4909 -84.6392 205° Southwest  Level FlightAware Approximate
05:14PM 15.3906 -84.6866 204° Southwest  Level FlightAware Approximate
05:15PM 15.2903 -84.7339 204° Southwest  Level FlightAware Approximate
05:16PM 15.1901 -84.7812 204° Southwest  Level FlightAware Approximate
05:17PM 15.0898 -84.8284 204° Southwest  Level FlightAware Approximate
05:18PM 14.9895 -84.8756 204° Southwest  Level FlightAware Approximate
05:19PM 14.8891 -84.9228 204° Southwest  Level FlightAware Approximate
05:20PM 14.7890 -84.9703 205° Southwest  Level FlightAware Approximate
05:21PM 14.6889 -85.0180 205° Southwest  Level FlightAware Approximate
05:22PM 14.5889 -85.0656 205° Southwest  Level FlightAware Approximate
05:23PM 14.4888 -85.1131 205° Southwest  Level FlightAware Approximate
05:24PM 14.3886 -85.1606 205° Southwest  Level FlightAware Approximate
05:25PM 14.2885 -85.2081 205° Southwest  Level FlightAware Approximate
05:26PM 14.1884 -85.2554 204° Southwest  Level FlightAware Approximate
05:27PM 14.0880 -85.3023 204° Southwest  Level FlightAware Approximate
05:28PM 13.9876 -85.3491 204° Southwest  Level FlightAware Approximate
05:29PM 13.8868 -85.3948 203° Southwest  Level FlightAware Approximate
05:30PM 13.7868 -85.4421 213° Southwest  Level FlightAware Approximate
05:31PM 13.6896 -85.4949 204° Southwest  Level FlightAware Approximate
05:32PM 13.5893 -85.5417 204° Southwest  Level FlightAware Approximate
05:33PM 13.4889 -85.5884 204° Southwest  Level FlightAware Approximate
05:34PM 13.3884 -85.6349 204° Southwest  Level FlightAware Approximate
05:35PM 13.2879 -85.6812 204° Southwest  Level FlightAware Approximate
05:36PM 13.1863 -85.7250 203° Southwest  Level FlightAware Approximate
05:37PM 13.0846 -85.7685 203° Southwest  Level FlightAware Approximate
05:38PM 12.9823 -85.8104 201° Southwest  Level FlightAware Approximate
05:39PM 12.8797 -85.8516 203° Southwest  Level FlightAware Approximate
05:40PM 12.7786 -85.8966 203° Southwest  Level FlightAware Approximate
05:41PM 12.6770 -85.9402 202° Southwest  Level FlightAware Approximate
05:42PM 12.5749 -85.9827 202° Southwest  Level FlightAware Approximate
05:43PM 12.4725 -86.0243 201° Southwest  Level FlightAware Approximate
05:44PM 12.3699 -86.0654 201° Southwest  Level FlightAware Approximate
05:45PM 12.2717 -86.1113 201° Southwest  Level FlightAware Approximate
05:46PM 12.1670 -86.1457 194° South  Level FlightAware Approximate
05:47PM 12.1500 -86.1500 194° South  Level FlightAware Approximate
05:48PM 12.1415 -86.1682 194° South  Level Estimated
05:49PM 12.1415 -86.1682 194° South  Level Estimated
05:50PM 12.1415 -86.1682 194° South  Level Estimated
05:51PM 12.1415 -86.1682 194° South  Level Estimated
05:52PM 12.1415 -86.1682 194° South  Level Estimated
05:53PM 12.1415 -86.1682 194° South  Level Estimated
05:54PM 12.1415 -86.1682 194° South  Level Estimated
05:55PM 12.1415 -86.1682 194° South  Level Estimated
05:56PM 12.1415 -86.1682 194° South  Level Estimated
05:57PM 12.1415 -86.1682 194° South  Level Estimated
05:58PM 12.1415 -86.1682 194° South  Level Estimated
05:59PM 12.1415 -86.1682 194° South  Level Estimated
06:00PM 12.1415 -86.1682 194° South  Level Estimated